BRU142 UWLL-UUEE
Flight info
| Callsign | BRU142 |
|---|---|
| Flight time | 1h 7m |
| Altitude | 30000 |
| Route | ARPUD T750 OKSUD T787 OTKOL T784 LARNO T291 URIDU L158 DIMGI |
| Aircraft | A333/M-SDFGRYZ/S |
Departure
| Time | 2026-04-30 19:00 |
|---|---|
| Airport | Ulyanovsk Baratayevka Airport (UWLL) |
Arrival
| Time | 2026-04-30 20:07 |
|---|---|
| Airport | Sheremetyevo International Airport (UUEE) |
| Time | Latitude | Longitude | Altitude | Speed | Heading |
|---|---|---|---|---|---|
| 2026-04-30 18:20 | 54.28655 | 48.23061 | 360 ft | 0 kts | 32° |
| 2026-04-30 18:34 | 54.28657 | 48.23064 | 360 ft | 1 kts | 38° |
| 2026-04-30 18:34 | 54.28651 | 48.23095 | 361 ft | 1 kts | 152° |
| 2026-04-30 18:34 | 54.28632 | 48.23097 | 361 ft | 6 kts | 181° |
| 2026-04-30 18:35 | 54.28587 | 48.23096 | 363 ft | 5 kts | 162° |
| 2026-04-30 18:35 | 54.28551 | 48.23144 | 365 ft | 8 kts | 134° |
| 2026-04-30 18:35 | 54.28513 | 48.23241 | 366 ft | 11 kts | 120° |
| 2026-04-30 18:36 | 54.28439 | 48.23484 | 368 ft | 12 kts | 121° |
| 2026-04-30 18:36 | 54.28395 | 48.23609 | 369 ft | 12 kts | 122° |
| 2026-04-30 18:36 | 54.28366 | 48.23685 | 369 ft | 0 kts | 122° |
| 2026-04-30 18:39 | 54.28359 | 48.23705 | 370 ft | 6 kts | 122° |
| 2026-04-30 18:39 | 54.28323 | 48.23803 | 370 ft | 11 kts | 122° |
| 2026-04-30 18:40 | 54.28280 | 48.23921 | 371 ft | 12 kts | 122° |
| 2026-04-30 18:40 | 54.28230 | 48.24052 | 371 ft | 13 kts | 122° |
| 2026-04-30 18:40 | 54.28178 | 48.24173 | 373 ft | 12 kts | 144° |
| 2026-04-30 18:40 | 54.28105 | 48.24162 | 376 ft | 10 kts | 207° |
| 2026-04-30 18:41 | 54.28029 | 48.24083 | 379 ft | 15 kts | 213° |
| 2026-04-30 18:41 | 54.27927 | 48.23973 | 383 ft | 19 kts | 212° |
| 2026-04-30 18:41 | 54.27802 | 48.23838 | 391 ft | 22 kts | 212° |
| 2026-04-30 18:41 | 54.27656 | 48.23682 | 397 ft | 26 kts | 212° |
| 2026-04-30 18:42 | 54.27491 | 48.23505 | 404 ft | 27 kts | 213° |
| 2026-04-30 18:42 | 54.27175 | 48.23166 | 410 ft | 26 kts | 212° |
| 2026-04-30 18:42 | 54.27026 | 48.23008 | 416 ft | 24 kts | 212° |
| 2026-04-30 18:45 | 54.26375 | 48.22150 | 431 ft | 0 kts | 270° |
| 2026-04-30 18:46 | 54.26375 | 48.22144 | 431 ft | 2 kts | 270° |
| 2026-04-30 18:47 | 54.26375 | 48.22135 | 431 ft | 0 kts | 270° |
| 2026-04-30 18:57 | 54.26377 | 48.22003 | 434 ft | 22 kts | 281° |
| 2026-04-30 18:57 | 54.26456 | 48.21961 | 434 ft | 0 kts | 31° |
| 2026-04-30 18:58 | 54.26458 | 48.21964 | 434 ft | 0 kts | 31° |
| 2026-04-30 18:59 | 54.26516 | 48.22024 | 433 ft | 38 kts | 31° |
| 2026-04-30 19:00 | 54.28896 | 48.24511 | 1253 ft | 156 kts | 26° |
| 2026-04-30 19:00 | 54.29908 | 48.25549 | 1603 ft | 189 kts | 35° |
| 2026-04-30 19:00 | 54.32150 | 48.28089 | 2873 ft | 197 kts | 38° |
| 2026-04-30 19:01 | 54.34744 | 48.28489 | 4165 ft | 209 kts | 328° |
| 2026-04-30 19:01 | 54.35685 | 48.26608 | 4774 ft | 216 kts | 291° |
| 2026-04-30 19:02 | 54.36580 | 48.21606 | 5892 ft | 228 kts | 293° |
| 2026-04-30 19:02 | 54.37984 | 48.16495 | 6896 ft | 250 kts | 295° |
| 2026-04-30 19:03 | 54.39609 | 48.10914 | 7904 ft | 274 kts | 295° |
| 2026-04-30 19:03 | 54.41390 | 48.04813 | 8894 ft | 300 kts | 295° |
| 2026-04-30 19:04 | 54.43331 | 47.98160 | 9881 ft | 325 kts | 295° |
| 2026-04-30 19:04 | 54.45416 | 47.90996 | 10858 ft | 350 kts | 294° |
| 2026-04-30 19:05 | 54.47624 | 47.83255 | 11836 ft | 372 kts | 293° |
| 2026-04-30 19:05 | 54.49889 | 47.75142 | 12791 ft | 382 kts | 293° |
| 2026-04-30 19:06 | 54.52174 | 47.66923 | 13715 ft | 383 kts | 293° |
| 2026-04-30 19:06 | 54.53332 | 47.62752 | 14201 ft | 384 kts | 292° |
| 2026-04-30 19:06 | 54.55624 | 47.54469 | 15131 ft | 391 kts | 292° |
| 2026-04-30 19:07 | 54.57970 | 47.45963 | 16086 ft | 397 kts | 292° |
| 2026-04-30 19:07 | 54.59157 | 47.41645 | 16572 ft | 401 kts | 292° |
| 2026-04-30 19:08 | 54.61548 | 47.32925 | 17543 ft | 406 kts | 290° |
| 2026-04-30 19:08 | 54.63965 | 47.24075 | 18511 ft | 413 kts | 290° |
| 2026-04-30 19:08 | 54.65184 | 47.19594 | 18995 ft | 415 kts | 290° |
| 2026-04-30 19:09 | 54.67628 | 47.10593 | 19973 ft | 418 kts | 290° |
| 2026-04-30 19:09 | 54.68868 | 47.06012 | 20469 ft | 421 kts | 290° |
| 2026-04-30 19:09 | 54.70099 | 47.01455 | 20968 ft | 423 kts | 290° |
| 2026-04-30 19:10 | 54.72581 | 46.92240 | 21951 ft | 428 kts | 289° |
| 2026-04-30 19:10 | 54.75094 | 46.82868 | 22965 ft | 432 kts | 289° |
| 2026-04-30 19:11 | 54.76362 | 46.78129 | 23461 ft | 434 kts | 289° |
| 2026-04-30 19:11 | 54.78894 | 46.68630 | 24474 ft | 437 kts | 288° |
| 2026-04-30 19:11 | 54.80148 | 46.63913 | 24957 ft | 438 kts | 288° |
| 2026-04-30 19:12 | 54.81433 | 46.59129 | 25417 ft | 440 kts | 291° |
| 2026-04-30 19:12 | 54.83183 | 46.54742 | 25849 ft | 451 kts | 303° |
| 2026-04-30 19:12 | 54.85145 | 46.50503 | 26316 ft | 451 kts | 303° |
| 2026-04-30 19:13 | 54.89008 | 46.42024 | 27207 ft | 451 kts | 303° |
| 2026-04-30 19:13 | 54.92888 | 46.33453 | 28003 ft | 452 kts | 303° |
| 2026-04-30 19:13 | 54.94815 | 46.29183 | 28387 ft | 452 kts | 303° |
| 2026-04-30 19:14 | 54.96740 | 46.24910 | 28768 ft | 452 kts | 304° |
| 2026-04-30 19:14 | 54.98675 | 46.20608 | 29149 ft | 452 kts | 304° |
| 2026-04-30 19:14 | 55.00598 | 46.16325 | 29521 ft | 452 kts | 304° |
| 2026-04-30 19:14 | 55.02519 | 46.12041 | 29896 ft | 451 kts | 304° |
| 2026-04-30 19:15 | 55.04464 | 46.07691 | 30096 ft | 457 kts | 305° |
| 2026-04-30 19:15 | 55.08440 | 45.98783 | 30092 ft | 476 kts | 305° |
| 2026-04-30 19:15 | 55.10500 | 45.94154 | 30095 ft | 484 kts | 305° |
| 2026-04-30 19:16 | 55.14665 | 45.84767 | 30085 ft | 495 kts | 306° |
| 2026-04-30 19:17 | 55.21008 | 45.70406 | 30090 ft | 503 kts | 306° |
| 2026-04-30 19:17 | 55.27383 | 45.55885 | 30093 ft | 502 kts | 306° |
| 2026-04-30 19:18 | 55.33720 | 45.41363 | 30097 ft | 503 kts | 306° |
| 2026-04-30 19:19 | 55.37951 | 45.31618 | 30100 ft | 501 kts | 305° |
| 2026-04-30 19:19 | 55.44253 | 45.17034 | 30100 ft | 501 kts | 305° |
| 2026-04-30 19:20 | 55.48428 | 45.07326 | 30101 ft | 502 kts | 305° |
| 2026-04-30 19:21 | 55.54692 | 44.92643 | 30100 ft | 500 kts | 303° |
| 2026-04-30 19:21 | 55.57034 | 44.81405 | 30114 ft | 493 kts | 275° |
| 2026-04-30 19:22 | 55.57419 | 44.69299 | 30114 ft | 494 kts | 271° |
| 2026-04-30 19:23 | 55.58307 | 44.33079 | 30122 ft | 493 kts | 271° |
| 2026-04-30 19:24 | 55.58710 | 44.14981 | 30120 ft | 494 kts | 271° |
| 2026-04-30 19:25 | 55.59321 | 43.84667 | 30117 ft | 495 kts | 271° |
| 2026-04-30 19:26 | 55.60982 | 43.73039 | 30130 ft | 498 kts | 298° |
| 2026-04-30 19:26 | 55.64525 | 43.62484 | 30113 ft | 499 kts | 300° |
| 2026-04-30 19:27 | 55.69668 | 43.46684 | 30130 ft | 497 kts | 300° |
| 2026-04-30 19:28 | 55.74813 | 43.30743 | 30127 ft | 497 kts | 300° |
| 2026-04-30 19:29 | 55.79972 | 43.08482 | 30138 ft | 496 kts | 275° |
| 2026-04-30 19:30 | 55.81345 | 42.84197 | 30129 ft | 495 kts | 276° |
| 2026-04-30 19:31 | 55.82675 | 42.59891 | 30136 ft | 496 kts | 276° |
| 2026-04-30 19:31 | 55.83635 | 42.41792 | 29568 ft | 483 kts | 275° |
| 2026-04-30 19:32 | 55.83943 | 42.35856 | 29350 ft | 481 kts | 275° |
| 2026-04-30 19:32 | 55.84244 | 42.30026 | 29138 ft | 479 kts | 275° |
| 2026-04-30 19:32 | 55.84545 | 42.24114 | 28919 ft | 477 kts | 275° |
| 2026-04-30 19:32 | 55.84842 | 42.18245 | 28698 ft | 475 kts | 275° |
| 2026-04-30 19:33 | 55.85131 | 42.12459 | 28480 ft | 473 kts | 275° |
| 2026-04-30 19:33 | 55.85418 | 42.06678 | 28261 ft | 471 kts | 275° |
| 2026-04-30 19:33 | 55.85701 | 42.00913 | 27911 ft | 470 kts | 274° |
| 2026-04-30 19:33 | 55.85981 | 41.95160 | 27511 ft | 465 kts | 274° |
| 2026-04-30 19:34 | 55.86258 | 41.89434 | 27128 ft | 461 kts | 274° |
| 2026-04-30 19:34 | 55.86526 | 41.83806 | 26749 ft | 458 kts | 274° |
| 2026-04-30 19:34 | 55.86612 | 41.72639 | 25978 ft | 452 kts | 266° |
| 2026-04-30 19:35 | 55.86449 | 41.67101 | 25601 ft | 450 kts | 266° |
| 2026-04-30 19:35 | 55.86284 | 41.61534 | 25218 ft | 447 kts | 266° |
| 2026-04-30 19:35 | 55.86120 | 41.56068 | 24837 ft | 444 kts | 266° |
| 2026-04-30 19:35 | 55.85950 | 41.50577 | 24440 ft | 440 kts | 266° |
| 2026-04-30 19:36 | 55.85784 | 41.45219 | 24037 ft | 431 kts | 266° |
| 2026-04-30 19:36 | 55.85621 | 41.40036 | 23631 ft | 421 kts | 266° |
| 2026-04-30 19:36 | 55.85297 | 41.29923 | 23097 ft | 397 kts | 265° |
| 2026-04-30 19:37 | 55.85141 | 41.25139 | 23168 ft | 378 kts | 265° |
| 2026-04-30 19:37 | 55.84990 | 41.20583 | 23122 ft | 366 kts | 265° |
| 2026-04-30 19:37 | 55.84839 | 41.16101 | 23147 ft | 365 kts | 265° |
| 2026-04-30 19:37 | 55.84686 | 41.11571 | 23155 ft | 367 kts | 265° |
| 2026-04-30 19:38 | 55.84532 | 41.07068 | 23152 ft | 368 kts | 265° |
| 2026-04-30 19:38 | 55.84374 | 41.02513 | 23151 ft | 368 kts | 265° |
| 2026-04-30 19:38 | 55.84215 | 40.97974 | 23153 ft | 367 kts | 265° |
| 2026-04-30 19:38 | 55.84056 | 40.93464 | 23153 ft | 368 kts | 265° |
| 2026-04-30 19:39 | 55.83894 | 40.88907 | 23150 ft | 368 kts | 265° |
| 2026-04-30 19:39 | 55.83731 | 40.84394 | 23153 ft | 368 kts | 265° |
| 2026-04-30 19:39 | 55.83566 | 40.79876 | 23153 ft | 369 kts | 265° |
| 2026-04-30 19:39 | 55.83399 | 40.75318 | 23154 ft | 369 kts | 265° |
| 2026-04-30 19:40 | 55.83229 | 40.70746 | 23171 ft | 381 kts | 265° |
| 2026-04-30 19:40 | 55.83047 | 40.65916 | 23177 ft | 397 kts | 265° |
| 2026-04-30 19:40 | 55.82857 | 40.60960 | 23171 ft | 413 kts | 265° |
| 2026-04-30 19:40 | 55.82653 | 40.55830 | 23175 ft | 427 kts | 265° |
| 2026-04-30 19:41 | 55.82437 | 40.50459 | 23171 ft | 441 kts | 265° |
| 2026-04-30 19:41 | 55.82215 | 40.44992 | 23184 ft | 454 kts | 266° |
| 2026-04-30 19:41 | 55.81984 | 40.39346 | 23148 ft | 454 kts | 266° |
| 2026-04-30 19:41 | 55.81755 | 40.33827 | 23089 ft | 443 kts | 265° |
| 2026-04-30 19:42 | 55.81529 | 40.28426 | 23246 ft | 442 kts | 265° |
| 2026-04-30 19:42 | 55.81299 | 40.23005 | 23138 ft | 443 kts | 265° |
| 2026-04-30 19:42 | 55.81067 | 40.17585 | 23160 ft | 441 kts | 265° |
| 2026-04-30 19:42 | 55.80832 | 40.12125 | 23178 ft | 442 kts | 265° |
| 2026-04-30 19:43 | 55.80595 | 40.06717 | 23174 ft | 442 kts | 266° |
| 2026-04-30 19:43 | 55.80357 | 40.01344 | 23176 ft | 441 kts | 266° |
| 2026-04-30 19:43 | 55.80114 | 39.95885 | 23171 ft | 441 kts | 266° |
| 2026-04-30 19:44 | 55.79624 | 39.85045 | 22654 ft | 440 kts | 266° |
| 2026-04-30 19:44 | 55.79361 | 39.79691 | 22389 ft | 438 kts | 264° |
| 2026-04-30 19:44 | 55.79005 | 39.74382 | 22168 ft | 435 kts | 264° |
| 2026-04-30 19:44 | 55.78646 | 39.68991 | 21983 ft | 434 kts | 264° |
| 2026-04-30 19:45 | 55.78297 | 39.63750 | 21805 ft | 433 kts | 264° |
| 2026-04-30 19:45 | 55.77943 | 39.58467 | 21627 ft | 433 kts | 264° |
| 2026-04-30 19:45 | 55.77584 | 39.53139 | 21442 ft | 432 kts | 264° |
| 2026-04-30 19:45 | 55.77227 | 39.47886 | 21262 ft | 430 kts | 264° |
| 2026-04-30 19:46 | 55.76870 | 39.42656 | 21080 ft | 430 kts | 264° |
| 2026-04-30 19:46 | 55.76505 | 39.37369 | 20895 ft | 428 kts | 264° |
| 2026-04-30 19:46 | 55.76142 | 39.32157 | 20711 ft | 428 kts | 264° |
| 2026-04-30 19:46 | 55.75779 | 39.26981 | 20527 ft | 426 kts | 264° |
| 2026-04-30 19:47 | 55.75410 | 39.21751 | 20338 ft | 425 kts | 264° |
| 2026-04-30 19:47 | 55.75166 | 39.18324 | 20218 ft | 424 kts | 264° |
| 2026-04-30 19:47 | 55.74679 | 39.11497 | 20159 ft | 421 kts | 264° |
| 2026-04-30 19:47 | 55.74305 | 39.06296 | 20183 ft | 423 kts | 264° |
| 2026-04-30 19:48 | 55.73933 | 39.01158 | 20175 ft | 423 kts | 264° |
| 2026-04-30 19:48 | 55.73558 | 38.96014 | 20173 ft | 424 kts | 264° |
| 2026-04-30 19:48 | 55.73458 | 38.90838 | 20156 ft | 421 kts | 276° |
| 2026-04-30 19:48 | 55.73733 | 38.85641 | 20185 ft | 422 kts | 277° |
| 2026-04-30 19:49 | 55.73995 | 38.80481 | 20175 ft | 423 kts | 277° |
| 2026-04-30 19:49 | 55.74506 | 38.70152 | 20176 ft | 424 kts | 277° |
| 2026-04-30 19:49 | 55.74757 | 38.64976 | 20180 ft | 421 kts | 277° |
| 2026-04-30 19:50 | 55.75042 | 38.59883 | 20150 ft | 402 kts | 282° |
| 2026-04-30 19:50 | 55.75939 | 38.55338 | 20156 ft | 390 kts | 301° |
| 2026-04-30 19:50 | 55.77426 | 38.51355 | 20195 ft | 390 kts | 307° |
| 2026-04-30 19:50 | 55.78985 | 38.47375 | 20192 ft | 390 kts | 308° |
| 2026-04-30 19:51 | 55.80532 | 38.43457 | 20172 ft | 390 kts | 308° |
| 2026-04-30 19:51 | 55.82081 | 38.39537 | 20176 ft | 390 kts | 308° |
| 2026-04-30 19:51 | 55.83685 | 38.35676 | 19856 ft | 390 kts | 311° |
| 2026-04-30 19:51 | 55.85351 | 38.31866 | 19564 ft | 386 kts | 310° |
| 2026-04-30 19:52 | 55.86977 | 38.28126 | 19300 ft | 385 kts | 310° |
| 2026-04-30 19:52 | 55.88598 | 38.24390 | 19030 ft | 383 kts | 310° |
| 2026-04-30 19:52 | 55.90232 | 38.20612 | 18765 ft | 382 kts | 310° |
| 2026-04-30 19:52 | 55.91830 | 38.16916 | 18500 ft | 380 kts | 310° |
| 2026-04-30 19:53 | 55.93426 | 38.13216 | 18231 ft | 378 kts | 310° |
| 2026-04-30 19:53 | 55.95026 | 38.09498 | 17965 ft | 376 kts | 309° |
| 2026-04-30 19:53 | 55.96552 | 38.05788 | 17668 ft | 373 kts | 315° |
| 2026-04-30 19:53 | 55.98591 | 38.03009 | 17234 ft | 366 kts | 335° |
| 2026-04-30 19:54 | 56.00925 | 38.01266 | 16836 ft | 364 kts | 335° |
| 2026-04-30 19:54 | 56.03137 | 37.99115 | 16441 ft | 363 kts | 332° |
| 2026-04-30 19:54 | 56.05295 | 37.96921 | 16089 ft | 360 kts | 332° |
| 2026-04-30 19:54 | 56.07471 | 37.94684 | 15743 ft | 359 kts | 332° |
| 2026-04-30 19:55 | 56.09607 | 37.92480 | 15336 ft | 357 kts | 331° |
| 2026-04-30 19:55 | 56.11751 | 37.90264 | 14925 ft | 354 kts | 331° |
| 2026-04-30 19:55 | 56.13880 | 37.88063 | 14498 ft | 353 kts | 331° |
| 2026-04-30 19:55 | 56.15982 | 37.85886 | 13822 ft | 356 kts | 331° |
| 2026-04-30 19:56 | 56.18088 | 37.83698 | 13034 ft | 343 kts | 331° |
| 2026-04-30 19:56 | 56.20102 | 37.81606 | 12340 ft | 326 kts | 331° |
| 2026-04-30 19:56 | 56.22015 | 37.79618 | 11671 ft | 312 kts | 331° |
| 2026-04-30 19:56 | 56.23852 | 37.77704 | 10990 ft | 302 kts | 331° |
| 2026-04-30 19:57 | 56.25615 | 37.75867 | 10330 ft | 293 kts | 331° |
| 2026-04-30 19:57 | 56.27422 | 37.74357 | 9662 ft | 284 kts | 348° |
| 2026-04-30 19:57 | 56.29337 | 37.74294 | 9073 ft | 275 kts | 8° |
| 2026-04-30 19:57 | 56.31190 | 37.74160 | 8616 ft | 263 kts | 343° |
| 2026-04-30 19:58 | 56.32729 | 37.72518 | 8174 ft | 257 kts | 315° |
| 2026-04-30 19:58 | 56.33610 | 37.69788 | 7675 ft | 256 kts | 287° |
| 2026-04-30 19:58 | 56.33628 | 37.66645 | 7234 ft | 256 kts | 257° |
| 2026-04-30 19:58 | 56.32759 | 37.63851 | 6892 ft | 262 kts | 228° |
| 2026-04-30 19:59 | 56.31216 | 37.62096 | 6484 ft | 271 kts | 199° |
| 2026-04-30 19:59 | 56.29329 | 37.61816 | 6105 ft | 276 kts | 173° |
| 2026-04-30 19:59 | 56.26842 | 37.62555 | 5586 ft | 283 kts | 168° |
| 2026-04-30 20:00 | 56.24950 | 37.63339 | 4986 ft | 280 kts | 167° |
| 2026-04-30 20:00 | 56.23083 | 37.64158 | 4472 ft | 273 kts | 166° |
| 2026-04-30 20:00 | 56.21272 | 37.64964 | 3966 ft | 267 kts | 166° |
| 2026-04-30 20:00 | 56.19474 | 37.65767 | 3393 ft | 265 kts | 167° |
| 2026-04-30 20:01 | 56.16042 | 37.67299 | 2963 ft | 233 kts | 167° |
| 2026-04-30 20:01 | 56.14532 | 37.67973 | 2927 ft | 219 kts | 167° |
| 2026-04-30 20:01 | 56.13072 | 37.68622 | 2980 ft | 214 kts | 167° |
| 2026-04-30 20:02 | 56.10221 | 37.69891 | 2959 ft | 212 kts | 167° |
| 2026-04-30 20:02 | 56.08776 | 37.70533 | 2961 ft | 212 kts | 167° |
| 2026-04-30 20:03 | 56.05907 | 37.71807 | 2829 ft | 215 kts | 167° |
| 2026-04-30 20:03 | 56.04460 | 37.72448 | 2643 ft | 217 kts | 167° |
| 2026-04-30 20:03 | 56.02985 | 37.72518 | 2458 ft | 212 kts | 200° |
| 2026-04-30 20:03 | 56.01821 | 37.71088 | 2480 ft | 201 kts | 238° |
| 2026-04-30 20:04 | 56.01289 | 37.68855 | 2491 ft | 197 kts | 255° |
| 2026-04-30 20:04 | 56.00884 | 37.66478 | 2459 ft | 199 kts | 256° |
| 2026-04-30 20:04 | 56.00513 | 37.64117 | 2461 ft | 199 kts | 257° |
| 2026-04-30 20:05 | 55.99807 | 37.59355 | 2457 ft | 199 kts | 258° |
| 2026-04-30 20:05 | 55.99470 | 37.57030 | 2297 ft | 189 kts | 258° |
| 2026-04-30 20:05 | 55.98821 | 37.52800 | 1814 ft | 164 kts | 257° |
| 2026-04-30 20:06 | 55.98533 | 37.50829 | 1462 ft | 164 kts | 258° |
| 2026-04-30 20:06 | 55.98234 | 37.48871 | 1170 ft | 159 kts | 257° |
| 2026-04-30 20:06 | 55.97957 | 37.46999 | 914 ft | 155 kts | 257° |
| 2026-04-30 20:06 | 55.97687 | 37.45182 | 732 ft | 150 kts | 257° |
| 2026-04-30 20:07 | 55.97419 | 37.43381 | 609 ft | 145 kts | 256° |
| 2026-04-30 20:07 | 55.97289 | 37.42493 | 609 ft | 48 kts | 255° |
| 2026-04-30 20:07 | 55.97193 | 37.41858 | 618 ft | 17 kts | 256° |
| 2026-04-30 20:08 | 55.97163 | 37.41649 | 620 ft | 17 kts | 256° |
| 2026-04-30 20:08 | 55.97136 | 37.41431 | 621 ft | 17 kts | 275° |
| 2026-04-30 20:08 | 55.97216 | 37.41318 | 622 ft | 0 kts | 345° |
| 2026-04-30 20:09 | 55.97231 | 37.41310 | 622 ft | 6 kts | 345° |
| 2026-04-30 20:09 | 55.97288 | 37.41283 | 623 ft | 10 kts | 346° |
| 2026-04-30 20:09 | 55.97441 | 37.41211 | 626 ft | 11 kts | 346° |
| 2026-04-30 20:10 | 55.97491 | 37.41186 | 627 ft | 0 kts | 345° |
| 2026-04-30 20:11 | 55.97533 | 37.41166 | 627 ft | 5 kts | 345° |
| 2026-04-30 20:11 | 55.97576 | 37.41145 | 627 ft | 7 kts | 344° |
| 2026-04-30 20:11 | 55.97628 | 37.41116 | 627 ft | 8 kts | 348° |
| 2026-04-30 20:12 | 55.97694 | 37.41116 | 627 ft | 0 kts | 1° |